Time;durP1;ratioP1;P1;durP2;ratioP2;P2;SDS_P1;SDS_P2;PMS_P1;PMS_P2;Temp;Humidity;BMP_temperature;BMP_pressure;BME280_temperature;BME280_humidity;BME280_pressure;Samples;Min_cycle;Max_cycle;Signal;HPM_P1;HPM_P2
2023/01/01 00:00:41;;;;;;;22.90;12.07;;;;;;;;;;4984272;28;20228;-65
2023/01/01 00:03:06;;;;;;;24.85;12.15;;;;;;;;;;4983589;28;20217;-64
2023/01/01 00:05:32;;;;;;;17.40;10.63;;;;;;;;;;4983629;28;20625;-65
2023/01/01 00:07:57;;;;;;;22.63;10.80;;;;;;;;;;4979536;28;20221;-65
2023/01/01 00:10:28;;;;;;;25.73;11.55;;;;;;;;;;4975557;28;20212;-65
2023/01/01 00:12:54;;;;;;;19.52;9.35;;;;;;;;;;4975056;28;20316;-64
2023/01/01 00:15:20;;;;;;;17.30;8.85;;;;;;;;;;4999661;28;20252;-64
2023/01/01 00:17:45;;;;;;;18.45;7.95;;;;;;;;;;5002415;28;20208;-65
2023/01/01 00:20:10;;;;;;;18.23;7.70;;;;;;;;;;5002830;28;20224;-65
2023/01/01 00:22:35;;;;;;;19.80;9.43;;;;;;;;;;5003250;28;20299;-64
2023/01/01 00:25:01;;;;;;;18.23;8.88;;;;;;;;;;5001108;28;20235;-65
2023/01/01 00:27:26;;;;;;;17.30;7.63;;;;;;;;;;5003256;28;20266;-64
2023/01/01 00:29:51;;;;;;;18.25;7.47;;;;;;;;;;5000472;28;20286;-65
2023/01/01 00:32:17;;;;;;;16.52;6.20;;;;;;;;;;4975349;28;20631;-65
2023/01/01 00:34:42;;;;;;;13.30;5.30;;;;;;;;;;4975696;28;20237;-65
2023/01/01 00:37:07;;;;;;;14.77;5.95;;;;;;;;;;4978950;28;20228;-64
2023/01/01 00:39:32;;;;;;;14.07;5.60;;;;;;;;;;5001949;28;20209;-65
2023/01/01 00:41:58;;;;;;;15.57;6.35;;;;;;;;;;4988665;28;20204;-64
2023/01/01 00:44:23;;;;;;;14.80;5.22;;;;;;;;;;4983286;28;20212;-67
2023/01/01 00:46:48;;;;;;;12.38;4.68;;;;;;;;;;4982657;28;20216;-68
2023/01/01 00:49:13;;;;;;;12.25;4.47;;;;;;;;;;4983372;28;20221;-68
2023/01/01 00:51:39;;;;;;;10.55;4.40;;;;;;;;;;4983233;28;20699;-67
2023/01/01 00:54:04;;;;;;;15.70;4.40;;;;;;;;;;4975040;28;20360;-67
2023/01/01 00:56:29;;;;;;;11.10;5.03;;;;;;;;;;4975680;28;20239;-67
2023/01/01 00:58:54;;;;;;;10.27;3.88;;;;;;;;;;4990839;28;20283;-68
2023/01/01 01:01:20;;;;;;;11.73;3.63;;;;;;;;;;4982092;28;20225;-67
2023/01/01 01:03:45;;;;;;;10.68;3.63;;;;;;;;;;4983571;28;20209;-67
2023/01/01 01:06:11;;;;;;;13.43;3.40;;;;;;;;;;4983233;28;20239;-67
2023/01/01 01:08:38;;;;;;;9.30;3.15;;;;;;;;;;4997695;28;20660;-67
2023/01/01 01:11:05;;;;;;;9.50;3.03;;;;;;;;;;4982498;28;20205;-67
2023/01/01 01:13:30;;;;;;;9.85;3.08;;;;;;;;;;4983293;28;20791;-67
2023/01/01 01:15:55;;;;;;;9.13;2.55;;;;;;;;;;4977057;28;20311;-67
2023/01/01 01:18:20;;;;;;;13.50;2.75;;;;;;;;;;4974890;28;20217;-67
2023/01/01 01:20:48;;;;;;;8.13;2.78;;;;;;;;;;4974906;28;20727;-67
2023/01/01 01:23:13;;;;;;;9.85;2.53;;;;;;;;;;5013623;28;20240;-67
2023/01/01 01:25:38;;;;;;;9.52;3.47;;;;;;;;;;5002400;28;20244;-67
2023/01/01 01:28:04;;;;;;;6.65;2.03;;;;;;;;;;4986624;28;20255;-67
2023/01/01 01:30:29;;;;;;;12.57;2.40;;;;;;;;;;4987460;28;20323;-67
2023/01/01 01:32:54;;;;;;;8.40;2.30;;;;;;;;;;4987222;28;20217;-67
2023/01/01 01:35:20;;;;;;;8.55;2.65;;;;;;;;;;4985716;28;20651;-67
2023/01/01 01:37:45;;;;;;;9.20;2.40;;;;;;;;;;4984255;28;20204;-68
2023/01/01 01:40:14;;;;;;;12.65;2.10;;;;;;;;;;4979077;28;20510;-67
2023/01/01 01:42:39;;;;;;;8.98;2.08;;;;;;;;;;4978830;28;20308;-68
2023/01/01 01:45:05;;;;;;;8.32;1.95;;;;;;;;;;4981158;28;20300;-67
2023/01/01 01:47:32;;;;;;;9.75;2.38;;;;;;;;;;4987024;28;20244;-67
2023/01/01 01:50:06;;;;;;;6.65;1.98;;;;;;;;;;5005361;28;20303;-67
2023/01/01 01:52:31;;;;;;;5.90;1.90;;;;;;;;;;5005737;28;20358;-67
2023/01/01 01:54:56;;;;;;;7.38;1.98;;;;;;;;;;5001436;28;20217;-67
2023/01/01 01:57:22;;;;;;;11.02;2.33;;;;;;;;;;4985331;28;20216;-67
2023/01/01 01:59:47;;;;;;;8.02;1.80;;;;;;;;;;4985854;28;20513;-67
2023/01/01 02:02:15;;;;;;;9.13;2.13;;;;;;;;;;4989073;28;20209;-67
2023/01/01 02:04:41;;;;;;;11.25;2.20;;;;;;;;;;5012440;28;20319;-67
2023/01/01 02:07:06;;;;;;;6.13;1.73;;;;;;;;;;4996318;28;20238;-67
2023/01/01 02:09:31;;;;;;;11.18;3.05;;;;;;;;;;5006036;28;20909;-67
2023/01/01 02:11:57;;;;;;;6.00;1.83;;;;;;;;;;4986075;28;20213;-67
2023/01/01 02:14:22;;;;;;;7.72;1.70;;;;;;;;;;5000928;28;20312;-67
2023/01/01 02:16:50;;;;;;;10.32;2.85;;;;;;;;;;5001200;28;20332;-67
2023/01/01 02:19:27;;;;;;;8.15;2.22;;;;;;;;;;4985346;28;20224;-67
2023/01/01 02:22:09;;;;;;;10.23;2.03;;;;;;;;;;5020282;28;20212;-67
2023/01/01 02:24:53;;;;;;;7.13;2.92;;;;;;;;;;4995825;28;20493;-67
2023/01/01 02:27:22;;;;;;;9.95;3.60;;;;;;;;;;4997132;28;20426;-67
2023/01/01 02:29:49;;;;;;;7.15;2.10;;;;;;;;;;4997777;28;20598;-67
2023/01/01 02:32:17;;;;;;;9.40;3.17;;;;;;;;;;4985802;28;20581;-67
2023/01/01 02:34:43;;;;;;;6.82;2.53;;;;;;;;;;5020356;28;20251;-67
2023/01/01 02:37:09;;;;;;;13.60;2.33;;;;;;;;;;5003388;28;20209;-67
2023/01/01 02:39:35;;;;;;;8.68;2.13;;;;;;;;;;5002867;28;20686;-67
2023/01/01 02:42:01;;;;;;;6.38;2.00;;;;;;;;;;4989904;28;20224;-67
2023/01/01 02:44:26;;;;;;;11.98;2.55;;;;;;;;;;5000796;28;20216;-67
2023/01/01 02:46:51;;;;;;;9.48;2.05;;;;;;;;;;4993787;28;20763;-67
2023/01/01 02:49:16;;;;;;;8.85;1.92;;;;;;;;;;4976677;28;20229;-67
2023/01/01 02:51:59;;;;;;;9.88;2.05;;;;;;;;;;4992410;28;20205;-67
2023/01/01 02:54:25;;;;;;;7.60;2.13;;;;;;;;;;5017872;28;20282;-67
2023/01/01 02:56:52;;;;;;;7.75;1.80;;;;;;;;;;4985631;28;20209;-67
2023/01/01 03:02:18;;;;;;;7.22;2.08;;;;;;;;;;5006048;28;20275;-67
2023/01/01 03:04:48;;;;;;;8.68;2.55;;;;;;;;;;4993932;28;20696;-67
2023/01/01 03:07:20;;;;;;;8.05;1.67;;;;;;;;;;4993882;28;20213;-67
2023/01/01 03:09:51;;;;;;;8.57;1.85;;;;;;;;;;4996244;28;20217;-67
2023/01/01 03:12:39;;;;;;;9.40;2.13;;;;;;;;;;5014080;28;20307;-67
2023/01/01 03:15:06;;;;;;;8.02;2.05;;;;;;;;;;5013091;28;20255;-67
2023/01/01 03:17:33;;;;;;;5.82;1.65;;;;;;;;;;5012809;28;20623;-67
2023/01/01 03:20:00;;;;;;;6.35;2.03;;;;;;;;;;5013282;28;20215;-67
2023/01/01 03:22:27;;;;;;;7.38;1.90;;;;;;;;;;5013117;28;20216;-67
2023/01/01 03:24:53;;;;;;;9.57;1.80;;;;;;;;;;5014221;28;20219;-67
2023/01/01 03:27:20;;;;;;;7.10;1.70;;;;;;;;;;5012607;28;20299;-67
2023/01/01 03:29:45;;;;;;;8.05;2.70;;;;;;;;;;5012111;28;20727;-67
2023/01/01 03:32:13;;;;;;;5.80;1.40;;;;;;;;;;5012095;28;20315;-67
2023/01/01 03:34:39;;;;;;;5.50;1.70;;;;;;;;;;5013239;28;20251;-67
2023/01/01 03:37:06;;;;;;;7.70;2.05;;;;;;;;;;5010612;28;20224;-67
2023/01/01 03:39:37;;;;;;;4.75;1.65;;;;;;;;;;5013883;28;20208;-67
2023/01/01 03:42:21;;;;;;;6.07;1.65;;;;;;;;;;4996109;28;20213;-67
2023/01/01 03:44:48;;;;;;;5.70;1.85;;;;;;;;;;4994299;28;20217;-67
2023/01/01 03:47:13;;;;;;;10.65;1.80;;;;;;;;;;4993539;28;20228;-67
2023/01/01 03:49:39;;;;;;;10.65;1.80;;;;;;;;;;4992940;28;20213;-67
2023/01/01 03:52:22;;;;;;;8.88;2.05;;;;;;;;;;4993438;28;20209;-67
2023/01/01 03:54:48;;;;;;;5.88;1.75;;;;;;;;;;4997483;28;20278;-67
2023/01/01 03:57:13;;;;;;;5.47;1.67;;;;;;;;;;5012562;28;20220;-67
2023/01/01 03:59:41;;;;;;;5.53;1.50;;;;;;;;;;5013498;28;20209;-67
2023/01/01 04:02:07;;;;;;;5.75;1.63;;;;;;;;;;5011135;28;20692;-67
2023/01/01 04:04:32;;;;;;;9.77;1.98;;;;;;;;;;5004000;28;20219;-67
2023/01/01 04:06:58;;;;;;;5.55;1.92;;;;;;;;;;5002745;28;20212;-67
2023/01/01 04:09:24;;;;;;;9.00;2.10;;;;;;;;;;5013004;28;20668;-67
2023/01/01 04:12:03;;;;;;;5.60;1.92;;;;;;;;;;5010375;28;20409;-67
2023/01/01 04:14:31;;;;;;;6.57;1.60;;;;;;;;;;5011765;28;20306;-67
2023/01/01 04:16:57;;;;;;;5.70;1.65;;;;;;;;;;5012355;28;20212;-67
2023/01/01 04:19:22;;;;;;;9.00;1.70;;;;;;;;;;5011704;28;20205;-67
2023/01/01 04:21:47;;;;;;;4.90;1.63;;;;;;;;;;5013245;28;20243;-67
2023/01/01 04:24:13;;;;;;;8.77;1.77;;;;;;;;;;5011881;28;20220;-67
2023/01/01 04:26:39;;;;;;;5.35;1.60;;;;;;;;;;5013272;28;20204;-67
2023/01/01 04:29:04;;;;;;;7.13;1.55;;;;;;;;;;5012697;28;20577;-67
2023/01/01 04:31:29;;;;;;;5.50;1.50;;;;;;;;;;5012356;28;20204;-67
2023/01/01 04:33:54;;;;;;;10.02;1.67;;;;;;;;;;5012641;28;20337;-67
2023/01/01 04:36:20;;;;;;;5.50;1.83;;;;;;;;;;5012807;28;20224;-67
2023/01/01 04:38:45;;;;;;;5.93;1.73;;;;;;;;;;5012523;28;20694;-64
2023/01/01 04:41:10;;;;;;;6.18;1.75;;;;;;;;;;4996854;28;20209;-67
2023/01/01 04:43:35;;;;;;;9.88;1.60;;;;;;;;;;4984155;28;20205;-67
2023/01/01 04:46:01;;;;;;;8.18;1.60;;;;;;;;;;4997176;28;20706;-67
2023/01/01 04:48:27;;;;;;;6.75;1.58;;;;;;;;;;4998505;28;20660;-67
2023/01/01 04:50:54;;;;;;;6.53;1.50;;;;;;;;;;4973181;28;20212;-67
2023/01/01 04:53:19;;;;;;;8.50;1.65;;;;;;;;;;4973835;28;20220;-67
2023/01/01 04:55:45;;;;;;;7.53;2.03;;;;;;;;;;4975814;28;20667;-67
2023/01/01 04:58:10;;;;;;;7.78;1.70;;;;;;;;;;4981780;28;20817;-67
2023/01/01 05:00:35;;;;;;;6.68;1.50;;;;;;;;;;4996829;28;20216;-67
2023/01/01 05:03:01;;;;;;;6.72;1.50;;;;;;;;;;4982838;28;20256;-67
2023/01/01 05:05:26;;;;;;;7.85;1.45;;;;;;;;;;4983449;28;20707;-67
2023/01/01 05:07:51;;;;;;;7.38;1.80;;;;;;;;;;4982733;28;20668;-67
2023/01/01 05:10:16;;;;;;;5.63;1.70;;;;;;;;;;4982972;28;20224;-67
2023/01/01 05:12:42;;;;;;;5.88;1.70;;;;;;;;;;4979762;28;20581;-67
2023/01/01 05:15:07;;;;;;;6.45;1.60;;;;;;;;;;4974303;28;20315;-67
2023/01/01 05:17:32;;;;;;;8.52;2.20;;;;;;;;;;4975601;28;20224;-67
2023/01/01 05:19:59;;;;;;;7.57;1.63;;;;;;;;;;4979602;28;20715;-67
2023/01/01 05:22:24;;;;;;;7.00;1.77;;;;;;;;;;4981837;28;20213;-67
2023/01/01 05:24:49;;;;;;;6.88;1.60;;;;;;;;;;4983430;28;20684;-67
2023/01/01 05:27:14;;;;;;;10.55;2.10;;;;;;;;;;4982559;28;20228;-67
2023/01/01 05:29:40;;;;;;;8.02;1.58;;;;;;;;;;4983620;28;20232;-66
2023/01/01 05:32:05;;;;;;;6.72;1.60;;;;;;;;;;4982783;28;20217;-67
2023/01/01 05:34:30;;;;;;;5.35;1.70;;;;;;;;;;4980901;28;20651;-67
2023/01/01 05:36:56;;;;;;;7.45;1.80;;;;;;;;;;4975660;28;20213;-67
2023/01/01 05:39:21;;;;;;;12.25;2.05;;;;;;;;;;4974855;28;20217;-67
2023/01/01 05:41:46;;;;;;;6.00;1.75;;;;;;;;;;4981540;28;20229;-67
2023/01/01 05:44:12;;;;;;;7.85;1.60;;;;;;;;;;5006610;28;20618;-67
2023/01/01 05:46:37;;;;;;;6.68;1.73;;;;;;;;;;5012310;28;20216;-67
2023/01/01 05:49:02;;;;;;;6.70;2.10;;;;;;;;;;5011189;28;20201;-67
2023/01/01 05:51:28;;;;;;;4.97;1.88;;;;;;;;;;5011828;28;20212;-67
2023/01/01 05:53:53;;;;;;;7.90;1.65;;;;;;;;;;5012127;28;20243;-66
2023/01/01 05:56:18;;;;;;;4.55;1.10;;;;;;;;;;5010766;28;20227;-66
2023/01/01 05:58:44;;;;;;;5.68;1.40;;;;;;;;;;5012288;28;20209;-66
2023/01/01 06:01:12;;;;;;;7.85;1.20;;;;;;;;;;5011745;28;20631;-67
2023/01/01 06:03:37;;;;;;;5.85;1.50;;;;;;;;;;5009946;28;20664;-67
2023/01/01 06:06:03;;;;;;;6.05;1.15;;;;;;;;;;5011389;28;20211;-67
2023/01/01 06:08:28;;;;;;;7.07;1.40;;;;;;;;;;5012280;28;20204;-66
2023/01/01 06:10:58;;;;;;;5.32;1.00;;;;;;;;;;5011731;28;20557;-66
2023/01/01 06:13:23;;;;;;;9.52;1.55;;;;;;;;;;5012244;28;20214;-66
2023/01/01 06:15:55;;;;;;;5.85;1.35;;;;;;;;;;5015424;28;20216;-67
2023/01/01 06:18:20;;;;;;;8.20;1.40;;;;;;;;;;4985336;28;20224;-66
2023/01/01 06:20:45;;;;;;;4.75;1.30;;;;;;;;;;4986392;28;20217;-67
2023/01/01 06:23:10;;;;;;;6.93;1.40;;;;;;;;;;4985753;28;20221;-67
2023/01/01 06:25:36;;;;;;;6.95;1.58;;;;;;;;;;4985726;28;20217;-67
2023/01/01 06:28:01;;;;;;;4.95;1.63;;;;;;;;;;4985913;28;20217;-67
2023/01/01 06:30:26;;;;;;;5.50;1.30;;;;;;;;;;4985779;28;20209;-67
2023/01/01 06:32:52;;;;;;;7.05;1.40;;;;;;;;;;4982438;28;20446;-67
2023/01/01 06:35:17;;;;;;;4.90;1.00;;;;;;;;;;4978172;28;20236;-67
2023/01/01 06:37:43;;;;;;;4.22;1.10;;;;;;;;;;4996143;28;21020;-67
2023/01/01 06:40:09;;;;;;;4.95;1.40;;;;;;;;;;5000229;28;20219;-67
2023/01/01 06:42:34;;;;;;;6.32;1.48;;;;;;;;;;4985958;28;20246;-67
2023/01/01 06:44:59;;;;;;;6.40;1.30;;;;;;;;;;4985771;28;20217;-66
2023/01/01 06:47:25;;;;;;;6.88;1.38;;;;;;;;;;4985556;28;21088;-66
2023/01/01 06:49:50;;;;;;;5.60;1.40;;;;;;;;;;4985569;28;20219;-67
2023/01/01 06:52:15;;;;;;;6.90;1.60;;;;;;;;;;4983923;28;20614;-67
2023/01/01 06:54:40;;;;;;;7.53;1.23;;;;;;;;;;4985098;28;21124;-67
2023/01/01 06:57:06;;;;;;;6.85;1.30;;;;;;;;;;4975424;28;20213;-66
2023/01/01 06:59:31;;;;;;;4.63;1.42;;;;;;;;;;4976706;28;20669;-66
2023/01/01 07:01:56;;;;;;;6.85;1.38;;;;;;;;;;4978203;28;20228;-67
2023/01/01 07:04:21;;;;;;;8.52;1.15;;;;;;;;;;4984805;28;20213;-67
2023/01/01 07:06:47;;;;;;;5.72;1.30;;;;;;;;;;4985341;28;20689;-67
2023/01/01 07:09:12;;;;;;;5.90;1.30;;;;;;;;;;4985191;28;20209;-66
2023/01/01 07:11:37;;;;;;;6.18;1.13;;;;;;;;;;4985294;28;20219;-67
2023/01/01 07:14:02;;;;;;;6.38;1.45;;;;;;;;;;4983862;28;20708;-66
2023/01/01 07:16:28;;;;;;;3.72;1.10;;;;;;;;;;4985633;28;20240;-66
2023/01/01 07:18:53;;;;;;;4.30;1.10;;;;;;;;;;4980534;28;20220;-67
2023/01/01 07:21:25;;;;;;;3.40;0.60;;;;;;;;;;4976530;28;20379;-67
2023/01/01 07:23:51;;;;;;;3.72;0.90;;;;;;;;;;5010877;28;20255;-67
2023/01/01 07:26:16;;;;;;;4.97;1.38;;;;;;;;;;5001977;28;20667;-67
2023/01/01 07:28:41;;;;;;;3.92;0.75;;;;;;;;;;5003540;28;20212;-67
2023/01/01 07:31:07;;;;;;;6.07;0.88;;;;;;;;;;5003940;28;20200;-67
2023/01/01 07:33:33;;;;;;;3.28;0.85;;;;;;;;;;5003924;28;20209;-67
2023/01/01 07:35:58;;;;;;;4.25;0.65;;;;;;;;;;5003646;28;20293;-67
2023/01/01 07:38:23;;;;;;;3.38;0.70;;;;;;;;;;5003477;28;20608;-67
2023/01/01 07:40:48;;;;;;;4.93;0.77;;;;;;;;;;4994891;28;20345;-66
2023/01/01 07:43:14;;;;;;;2.00;0.65;;;;;;;;;;4976094;28;20228;-65
2023/01/01 07:45:39;;;;;;;5.30;0.90;;;;;;;;;;4975880;28;20705;-65
2023/01/01 07:48:04;;;;;;;3.53;0.50;;;;;;;;;;4995214;28;20212;-65
2023/01/01 07:50:30;;;;;;;2.85;0.65;;;;;;;;;;4988848;28;20219;-66
2023/01/01 07:52:55;;;;;;;5.32;0.90;;;;;;;;;;4989789;28;20214;-66
2023/01/01 07:55:21;;;;;;;2.90;0.70;;;;;;;;;;4993903;28;20672;-66
2023/01/01 07:57:46;;;;;;;6.35;0.70;;;;;;;;;;4996777;28;20566;-66
2023/01/01 08:00:12;;;;;;;2.92;0.45;;;;;;;;;;4996738;28;20615;-66
2023/01/01 08:02:38;;;;;;;3.60;0.68;;;;;;;;;;5004941;28;20627;-66
2023/01/01 08:05:03;;;;;;;3.83;0.90;;;;;;;;;;5006461;28;20342;-66
2023/01/01 08:07:28;;;;;;;6.85;0.70;;;;;;;;;;5007311;28;20231;-68
2023/01/01 08:09:54;;;;;;;4.33;0.80;;;;;;;;;;5001123;28;20429;-69
2023/01/01 08:12:19;;;;;;;4.70;0.80;;;;;;;;;;4997794;28;20432;-68
2023/01/01 08:14:44;;;;;;;3.72;0.80;;;;;;;;;;5000227;28;20383;-66
2023/01/01 08:17:09;;;;;;;5.38;0.90;;;;;;;;;;5002579;28;20209;-67
2023/01/01 08:19:35;;;;;;;4.93;1.20;;;;;;;;;;5007155;28;20217;-66
2023/01/01 08:22:00;;;;;;;2.92;0.70;;;;;;;;;;5004349;28;20212;-67
2023/01/01 08:24:25;;;;;;;3.85;0.82;;;;;;;;;;5005371;28;20212;-68
2023/01/01 08:26:50;;;;;;;4.47;0.75;;;;;;;;;;5006749;28;20247;-68
2023/01/01 08:29:16;;;;;;;4.13;1.23;;;;;;;;;;5006314;28;20666;-67
2023/01/01 08:31:41;;;;;;;5.40;0.90;;;;;;;;;;5004431;28;20219;-68
2023/01/01 08:34:06;;;;;;;3.45;0.70;;;;;;;;;;4997658;28;20294;-69
2023/01/01 08:36:32;;;;;;;4.80;0.98;;;;;;;;;;4998777;28;20236;-70
2023/01/01 08:38:57;;;;;;;6.35;1.40;;;;;;;;;;4999117;28;20247;-68
2023/01/01 08:41:22;;;;;;;4.70;1.17;;;;;;;;;;5005854;28;20224;-68
2023/01/01 08:43:47;;;;;;;6.65;0.95;;;;;;;;;;5006560;28;20216;-67
2023/01/01 08:46:13;;;;;;;6.47;1.40;;;;;;;;;;5005015;28;20216;-67
2023/01/01 08:48:38;;;;;;;3.28;0.70;;;;;;;;;;5006780;28;20218;-68
2023/01/01 08:51:03;;;;;;;5.63;0.98;;;;;;;;;;5005392;28;20702;-67
2023/01/01 08:53:29;;;;;;;29.17;16.60;;;;;;;;;;5006412;28;20638;-67
2023/01/01 08:55:55;;;;;;;6.85;2.33;;;;;;;;;;4998835;28;20234;-67
2023/01/01 08:58:20;;;;;;;3.08;1.00;;;;;;;;;;4997608;28;20244;-67
2023/01/01 09:00:45;;;;;;;7.55;1.38;;;;;;;;;;4999559;28;20304;-69
2023/01/01 09:03:11;;;;;;;6.28;1.45;;;;;;;;;;5004708;28;20565;-66
2023/01/01 09:05:36;;;;;;;5.73;1.10;;;;;;;;;;5005459;28;20502;-67
2023/01/01 09:08:01;;;;;;;7.17;2.20;;;;;;;;;;5004582;28;21000;-67
2023/01/01 09:10:26;;;;;;;6.90;1.85;;;;;;;;;;5006387;28;20220;-68
2023/01/01 09:12:52;;;;;;;5.75;1.00;;;;;;;;;;5005188;28;20613;-68
2023/01/01 09:15:17;;;;;;;5.68;1.20;;;;;;;;;;5005535;28;20224;-68
2023/01/01 09:17:43;;;;;;;4.90;1.20;;;;;;;;;;4997951;28;20667;-69
2023/01/01 09:20:08;;;;;;;10.00;1.70;;;;;;;;;;4997393;28;20254;-68
2023/01/01 09:22:33;;;;;;;5.97;1.50;;;;;;;;;;4998759;28;20219;-68
2023/01/01 09:24:58;;;;;;;5.72;1.30;;;;;;;;;;5002646;28;20208;-68
2023/01/01 09:27:24;;;;;;;7.50;1.20;;;;;;;;;;5004775;28;20771;-67
2023/01/01 09:29:49;;;;;;;6.50;1.48;;;;;;;;;;5006370;28;20293;-67
2023/01/01 09:32:14;;;;;;;7.57;1.30;;;;;;;;;;5005908;28;20220;-68
2023/01/01 09:34:39;;;;;;;5.10;1.17;;;;;;;;;;5005439;28;20230;-68
2023/01/01 09:37:05;;;;;;;7.45;1.17;;;;;;;;;;5005380;28;20837;-68
2023/01/01 09:39:30;;;;;;;7.85;1.30;;;;;;;;;;5005073;28;20455;-68
2023/01/01 09:42:30;;;;;;;7.97;1.30;;;;;;;;;;4997232;28;20295;-68
2023/01/01 09:44:55;;;;;;;8.32;1.10;;;;;;;;;;4997497;28;20706;-67
2023/01/01 09:47:23;;;;;;;8.73;1.15;;;;;;;;;;5000010;28;20304;-68
2023/01/01 09:49:48;;;;;;;5.75;1.45;;;;;;;;;;5008828;28;20220;-69
2023/01/01 09:52:13;;;;;;;9.32;1.70;;;;;;;;;;5009091;28;21058;-68
2023/01/01 09:54:39;;;;;;;6.75;1.40;;;;;;;;;;5007433;28;20228;-68
2023/01/01 09:57:07;;;;;;;6.65;1.27;;;;;;;;;;5007760;28;20204;-69
2023/01/01 09:59:32;;;;;;;8.10;1.25;;;;;;;;;;5009078;28;20220;-69
2023/01/01 10:02:24;;;;;;;8.82;1.73;;;;;;;;;;5007269;28;20212;-68
2023/01/01 10:04:58;;;;;;;6.13;1.17;;;;;;;;;;5000770;28;20295;-69
2023/01/01 10:07:30;;;;;;;10.02;1.48;;;;;;;;;;5001198;28;20532;-69
2023/01/01 10:09:56;;;;;;;6.57;1.38;;;;;;;;;;5003010;28;20235;-68
2023/01/01 10:12:37;;;;;;;4.47;1.00;;;;;;;;;;5009146;28;20658;-68
2023/01/01 10:15:04;;;;;;;7.20;1.30;;;;;;;;;;5008994;28;20310;-69
2023/01/01 10:17:32;;;;;;;8.88;1.40;;;;;;;;;;5008134;28;20209;-68
2023/01/01 10:20:00;;;;;;;10.20;1.67;;;;;;;;;;5007482;28;20204;-68
2023/01/01 10:22:26;;;;;;;7.32;1.30;;;;;;;;;;5004869;28;20216;-68
2023/01/01 10:24:53;;;;;;;7.70;1.50;;;;;;;;;;5007326;28;20211;-67
2023/01/01 10:27:21;;;;;;;7.10;1.90;;;;;;;;;;5008448;28;20307;-67
2023/01/01 10:29:47;;;;;;;7.55;1.42;;;;;;;;;;5008186;28;20228;-68
2023/01/01 10:32:15;;;;;;;8.70;1.55;;;;;;;;;;5006685;28;20213;-69
2023/01/01 10:34:41;;;;;;;7.75;1.38;;;;;;;;;;5006675;28;20652;-68
2023/01/01 10:37:07;;;;;;;6.93;1.38;;;;;;;;;;5007438;28;20299;-68
2023/01/01 10:39:32;;;;;;;6.28;1.52;;;;;;;;;;5007676;28;20749;-67
2023/01/01 10:41:57;;;;;;;8.13;1.83;;;;;;;;;;5008460;28;20423;-67
2023/01/01 10:44:28;;;;;;;9.60;1.88;;;;;;;;;;5007525;28;20674;-66
2023/01/01 10:46:55;;;;;;;12.50;1.90;;;;;;;;;;5007427;28;20582;-69
2023/01/01 10:49:20;;;;;;;7.47;1.70;;;;;;;;;;5008079;28;20307;-67
2023/01/01 10:51:46;;;;;;;6.28;1.45;;;;;;;;;;5008324;28;20303;-68
2023/01/01 10:54:30;;;;;;;6.38;1.42;;;;;;;;;;5006112;28;20225;-67
2023/01/01 10:56:56;;;;;;;11.13;1.70;;;;;;;;;;5008690;28;20271;-68
2023/01/01 10:59:32;;;;;;;7.72;2.08;;;;;;;;;;5007039;28;20667;-68
2023/01/01 11:02:06;;;;;;;9.57;1.50;;;;;;;;;;5008285;28;20212;-67
2023/01/01 11:04:31;;;;;;;15.10;2.03;;;;;;;;;;5007847;28;20219;-68
2023/01/01 11:06:57;;;;;;;9.98;1.90;;;;;;;;;;5006101;28;20657;-68
2023/01/01 11:09:30;;;;;;;8.90;1.88;;;;;;;;;;5006238;28;20270;-69
2023/01/01 11:11:57;;;;;;;9.75;1.55;;;;;;;;;;5007637;28;20587;-68
2023/01/01 11:14:31;;;;;;;8.48;1.40;;;;;;;;;;5006204;28;20231;-68
2023/01/01 11:16:56;;;;;;;8.93;1.40;;;;;;;;;;5007878;28;20208;-67
2023/01/01 11:19:23;;;;;;;8.30;1.38;;;;;;;;;;5005843;28;20223;-69
2023/01/01 11:21:49;;;;;;;7.38;1.30;;;;;;;;;;5008163;28;20296;-68
2023/01/01 11:24:17;;;;;;;8.63;1.65;;;;;;;;;;5005087;28;20216;-68
2023/01/01 11:26:42;;;;;;;9.15;1.77;;;;;;;;;;5006066;28;20205;-67
2023/01/01 11:29:17;;;;;;;6.35;2.20;;;;;;;;;;5007106;28;20232;-66
2023/01/01 11:31:43;;;;;;;7.07;1.70;;;;;;;;;;5006845;28;20212;-67
2023/01/01 11:34:15;;;;;;;6.40;1.65;;;;;;;;;;5006423;28;20255;-66
2023/01/01 11:36:40;;;;;;;9.07;1.50;;;;;;;;;;5008003;28;20508;-66
2023/01/01 11:39:07;;;;;;;7.45;2.90;;;;;;;;;;5005766;28;20706;-67
2023/01/01 11:41:39;;;;;;;8.18;2.40;;;;;;;;;;5005130;28;20220;-67
2023/01/01 11:44:04;;;;;;;8.70;1.80;;;;;;;;;;5007057;28;20605;-67
2023/01/01 11:46:30;;;;;;;11.00;3.13;;;;;;;;;;5007395;28;20244;-68
2023/01/01 11:48:55;;;;;;;10.57;2.30;;;;;;;;;;5005815;28;20204;-68
2023/01/01 11:51:28;;;;;;;6.40;1.80;;;;;;;;;;5006818;28;20259;-69
2023/01/01 11:53:55;;;;;;;6.93;2.03;;;;;;;;;;5007575;28;20208;-68
2023/01/01 11:56:20;;;;;;;7.18;2.35;;;;;;;;;;5004590;28;20231;-68
2023/01/01 11:58:50;;;;;;;10.35;2.95;;;;;;;;;;5006327;28;20205;-68
2023/01/01 12:01:18;;;;;;;7.65;2.50;;;;;;;;;;5005146;28;20250;-68
2023/01/01 12:03:43;;;;;;;8.77;2.50;;;;;;;;;;5005566;28;20251;-68
2023/01/01 12:06:13;;;;;;;9.57;3.10;;;;;;;;;;5006852;28;20228;-67
2023/01/01 12:08:39;;;;;;;10.25;2.75;;;;;;;;;;5004715;28;20212;-68
2023/01/01 12:11:08;;;;;;;8.60;2.58;;;;;;;;;;5006188;28;20205;-68
2023/01/01 12:13:34;;;;;;;9.82;3.35;;;;;;;;;;5006910;28;20553;-68
2023/01/01 12:15:59;;;;;;;12.80;3.10;;;;;;;;;;5005657;28;20224;-68
2023/01/01 12:18:26;;;;;;;10.95;3.13;;;;;;;;;;5005703;28;20216;-68
2023/01/01 12:20:52;;;;;;;9.48;2.72;;;;;;;;;;5007375;28;20213;-69
2023/01/01 12:23:18;;;;;;;10.48;3.10;;;;;;;;;;5004104;28;20228;-66
2023/01/01 12:25:43;;;;;;;9.15;2.70;;;;;;;;;;5006428;28;20209;-68
2023/01/01 12:28:16;;;;;;;10.13;2.97;;;;;;;;;;5001259;28;20216;-67
2023/01/01 12:30:44;;;;;;;11.38;2.92;;;;;;;;;;5004917;28;20299;-68
2023/01/01 12:33:28;;;;;;;11.90;3.80;;;;;;;;;;5005204;28;20630;-67
2023/01/01 12:36:04;;;;;;;11.10;3.80;;;;;;;;;;5006627;28;20233;-68
2023/01/01 12:38:45;;;;;;;11.20;2.95;;;;;;;;;;5005085;28;20722;-69
2023/01/01 12:41:12;;;;;;;12.27;3.47;;;;;;;;;;5005663;28;20734;-68
2023/01/01 12:43:43;;;;;;;12.85;3.30;;;;;;;;;;5006045;28;20302;-68
2023/01/01 12:46:12;;;;;;;11.88;3.60;;;;;;;;;;5003242;28;20212;-68
2023/01/01 12:49:02;;;;;;;12.00;3.10;;;;;;;;;;5003559;28;20231;-69
2023/01/01 12:51:30;;;;;;;11.63;3.28;;;;;;;;;;5000813;28;20216;-69
2023/01/01 12:53:57;;;;;;;8.98;2.60;;;;;;;;;;5003641;28;20220;-69
2023/01/01 12:56:22;;;;;;;10.82;3.30;;;;;;;;;;5002439;28;20274;-69
2023/01/01 12:58:58;;;;;;;12.80;2.85;;;;;;;;;;5000677;28;20249;-68
2023/01/01 13:01:26;;;;;;;11.63;2.97;;;;;;;;;;4999670;28;20211;-67
2023/01/01 13:03:54;;;;;;;11.27;3.00;;;;;;;;;;4998963;28;21154;-68
2023/01/01 13:06:31;;;;;;;10.48;3.00;;;;;;;;;;4860628;28;20986;-68
2023/01/01 13:08:58;;;;;;;11.02;2.40;;;;;;;;;;4981437;28;20211;-67
2023/01/01 13:11:26;;;;;;;13.05;2.58;;;;;;;;;;4997766;28;20248;-67
2023/01/01 13:13:51;;;;;;;10.77;2.72;;;;;;;;;;5001314;28;20638;-68
2023/01/01 13:16:30;;;;;;;9.27;2.53;;;;;;;;;;4997714;28;20596;-67
2023/01/01 13:18:56;;;;;;;11.70;2.50;;;;;;;;;;5001819;28;20208;-67
2023/01/01 13:21:21;;;;;;;12.03;2.87;;;;;;;;;;5001719;28;20427;-67
2023/01/01 13:23:47;;;;;;;9.32;2.53;;;;;;;;;;5004626;28;20462;-66
2023/01/01 13:26:19;;;;;;;9.70;2.45;;;;;;;;;;5004757;28;20220;-66
2023/01/01 13:28:50;;;;;;;10.77;2.58;;;;;;;;;;5006339;28;20586;-67
2023/01/01 13:31:16;;;;;;;13.32;2.38;;;;;;;;;;5006879;28;20626;-66
2023/01/01 13:33:41;;;;;;;11.05;2.40;;;;;;;;;;5004214;28;20266;-66
2023/01/01 13:36:07;;;;;;;11.57;3.08;;;;;;;;;;5005389;28;20226;-66
2023/01/01 13:38:50;;;;;;;15.13;2.50;;;;;;;;;;5006756;28;20717;-66
2023/01/01 13:41:25;;;;;;;42.75;9.60;;;;;;;;;;5006075;28;20236;-66
2023/01/01 13:43:50;;;;;;;12.02;2.35;;;;;;;;;;5006260;28;20576;-66
2023/01/01 13:46:16;;;;;;;17.90;2.78;;;;;;;;;;5006632;28;20220;-66
2023/01/01 13:48:45;;;;;;;15.38;3.20;;;;;;;;;;5004238;28;20220;-66
2023/01/01 13:51:17;;;;;;;18.92;5.97;;;;;;;;;;5004482;28;20208;-66
2023/01/01 13:53:47;;;;;;;13.10;2.58;;;;;;;;;;5020956;28;20584;-66
2023/01/01 13:56:15;;;;;;;11.77;3.00;;;;;;;;;;5004300;28;20578;-66
2023/01/01 13:58:53;;;;;;;11.10;2.42;;;;;;;;;;5005240;28;20624;-66
2023/01/01 14:01:38;;;;;;;11.75;2.78;;;;;;;;;;5005331;28;20220;-66
2023/01/01 14:04:05;;;;;;;10.68;2.40;;;;;;;;;;5005820;28;20307;-66
2023/01/01 14:06:33;;;;;;;8.82;2.42;;;;;;;;;;5006141;28;20209;-66
2023/01/01 14:09:00;;;;;;;12.30;2.50;;;;;;;;;;5005840;28;20224;-66
2023/01/01 14:11:27;;;;;;;12.20;2.60;;;;;;;;;;5004267;28;20216;-66
2023/01/01 14:13:52;;;;;;;16.40;2.65;;;;;;;;;;5005439;28;20760;-66
2023/01/01 14:16:17;;;;;;;10.00;2.80;;;;;;;;;;5004980;28;20216;-66
2023/01/01 14:18:47;;;;;;;11.38;2.22;;;;;;;;;;5006380;28;20215;-66
2023/01/01 14:21:13;;;;;;;10.55;2.72;;;;;;;;;;5003942;28;20228;-66
2023/01/01 14:23:39;;;;;;;14.20;2.60;;;;;;;;;;5005291;28;20208;-66
2023/01/01 14:26:06;;;;;;;12.57;2.85;;;;;;;;;;5004071;28;20493;-66
2023/01/01 14:28:31;;;;;;;11.07;3.22;;;;;;;;;;5004402;28;20231;-66
2023/01/01 14:30:57;;;;;;;10.57;3.65;;;;;;;;;;5004294;28;20212;-66
2023/01/01 14:33:24;;;;;;;11.73;3.22;;;;;;;;;;5001300;28;20259;-65
2023/01/01 14:35:51;;;;;;;13.23;3.20;;;;;;;;;;5004553;28;20267;-66
2023/01/01 14:38:22;;;;;;;9.57;2.67;;;;;;;;;;5005047;28;20328;-66
2023/01/01 14:40:48;;;;;;;13.10;3.13;;;;;;;;;;5005535;28;20551;-66